Time;durP1;ratioP1;P1;durP2;ratioP2;P2;SDS_P1;SDS_P2;PMS_P1;PMS_P2;Temp;Humidity;BMP_temperature;BMP_pressure;BME280_temperature;BME280_humidity;BME280_pressure;Samples;Min_cycle;Max_cycle;Signal;HPM_P1;HPM_P2
2022/03/05 00:00:43;;;;;;;27.50;14.68;;;;;;;3.13;61.40;101757.25;3578919;40;20055;-63
2022/03/05 00:03:10;;;;;;;25.70;14.10;;;;;;;3.12;61.62;101756.38;3576844;40;20044;-63
2022/03/05 00:05:36;;;;;;;30.48;14.98;;;;;;;3.08;61.98;101754.69;3575280;40;20057;-63
2022/03/05 00:08:03;;;;;;;26.77;14.07;;;;;;;3.07;61.60;101760.00;3576376;40;20048;-63
2022/03/05 00:10:29;;;;;;;27.17;15.35;;;;;;;3.03;62.43;101757.41;3579069;40;20129;-63
2022/03/05 00:12:54;;;;;;;28.17;15.18;;;;;;;3.02;62.65;101765.41;3579633;40;20061;-63
2022/03/05 00:15:20;;;;;;;29.42;14.98;;;;;;;2.87;63.13;101741.75;3572840;40;20053;-63
2022/03/05 00:17:50;;;;;;;31.10;16.95;;;;;;;2.94;63.07;101757.53;3575951;40;20048;-64
2022/03/05 00:20:18;;;;;;;31.30;16.20;;;;;;;2.87;63.28;101758.53;3576768;40;20595;-63
2022/03/05 00:22:46;;;;;;;35.38;17.33;;;;;;;2.88;62.43;101765.59;3575819;40;20410;-64
2022/03/05 00:25:12;;;;;;;34.08;17.00;;;;;;;2.89;62.99;101774.47;3577665;40;20068;-63
2022/03/05 00:27:38;;;;;;;33.38;18.20;;;;;;;2.89;63.33;101772.69;3576591;40;20059;-63
2022/03/05 00:30:05;;;;;;;33.80;17.98;;;;;;;2.84;63.37;101771.00;3577841;40;20052;-63
2022/03/05 00:32:31;;;;;;;33.50;18.15;;;;;;;2.80;63.10;101767.50;3576085;40;20053;-62
2022/03/05 00:34:57;;;;;;;35.40;19.05;;;;;;;2.78;63.24;101763.97;3574833;40;20054;-63
2022/03/05 00:37:22;;;;;;;38.85;19.63;;;;;;;2.74;64.13;101768.47;3576046;40;20057;-63
2022/03/05 00:39:48;;;;;;;34.95;19.63;;;;;;;2.72;64.54;101772.91;3574689;40;20296;-63
2022/03/05 00:42:14;;;;;;;35.33;19.10;;;;;;;2.69;63.86;101769.41;3578575;40;20639;-63
2022/03/05 00:44:40;;;;;;;32.53;18.77;;;;;;;2.67;63.09;101765.94;3578828;40;20056;-63
2022/03/05 00:47:06;;;;;;;36.08;20.73;;;;;;;2.61;64.42;101764.22;3579081;40;20080;-63
2022/03/05 00:49:32;;;;;;;37.10;19.33;;;;;;;2.53;64.37;101751.06;3582040;40;20048;-63
2022/03/05 00:51:57;;;;;;;34.70;19.70;;;;;;;2.54;64.56;101759.91;3579530;40;20067;-63
2022/03/05 00:54:24;;;;;;;36.65;20.27;;;;;;;2.35;64.08;101730.09;3576690;40;20052;-63
2022/03/05 00:56:49;;;;;;;35.65;20.13;;;;;;;2.48;65.33;101760.00;3581063;40;20044;-62
2022/03/05 00:59:15;;;;;;;35.50;20.27;;;;;;;2.48;64.13;101760.00;3578118;40;20071;-63
2022/03/05 01:01:41;;;;;;;38.58;20.33;;;;;;;2.42;65.43;101755.66;3575621;40;20064;-63
2022/03/05 01:04:07;;;;;;;38.05;20.02;;;;;;;2.38;64.92;101759.25;3574900;40;20049;-63
2022/03/05 01:06:33;;;;;;;40.70;19.95;;;;;;;2.13;65.46;101715.38;3576810;40;20311;-63
2022/03/05 01:09:04;;;;;;;41.53;20.58;;;;;;;2.04;65.02;101706.63;3576894;40;20056;-63
2022/03/05 01:11:31;;;;;;;38.92;19.50;;;;;;;2.31;65.35;101758.41;3575972;40;20435;-63
2022/03/05 01:13:57;;;;;;;37.58;19.30;;;;;;;2.25;65.81;101750.56;3578121;40;20056;-63
2022/03/05 01:16:22;;;;;;;38.20;20.42;;;;;;;2.26;65.35;101759.41;3579418;40;20047;-63
2022/03/05 01:18:48;;;;;;;40.47;21.45;;;;;;;2.15;66.42;101746.25;3576649;40;20088;-63
2022/03/05 01:21:14;;;;;;;38.80;20.77;;;;;;;2.17;65.77;101749.78;3577392;40;20061;-63
2022/03/05 01:23:40;;;;;;;41.97;21.77;;;;;;;2.14;66.57;101748.94;3576759;40;20045;-63
2022/03/05 01:26:06;;;;;;;47.80;23.98;;;;;;;1.85;66.19;101711.25;3576628;40;20064;-63
2022/03/05 01:28:33;;;;;;;42.55;20.85;;;;;;;1.85;66.43;101719.22;3576070;40;20063;-63
2022/03/05 01:30:59;;;;;;;37.28;19.95;;;;;;;2.07;67.17;101759.63;3568499;40;20054;-63
2022/03/05 01:33:25;;;;;;;39.03;20.85;;;;;;;2.04;66.37;101751.69;3574928;40;20051;-63
2022/03/05 01:35:51;;;;;;;40.92;21.27;;;;;;;2.01;66.25;101754.38;3581300;40;20275;-62
2022/03/05 01:38:17;;;;;;;38.72;20.58;;;;;;;1.96;67.12;101750.00;3576569;40;20060;-63
2022/03/05 01:40:44;;;;;;;42.83;21.50;;;;;;;1.80;66.95;101728.09;3578816;40;20044;-63
2022/03/05 01:43:10;;;;;;;42.40;22.00;;;;;;;1.67;66.60;101710.59;3576641;40;20064;-63
2022/03/05 01:45:38;;;;;;;42.08;22.27;;;;;;;1.77;67.25;101739.59;3579328;40;20088;-63
2022/03/05 01:48:04;;;;;;;39.13;20.77;;;;;;;1.71;67.99;101729.06;3576686;40;20314;-63
2022/03/05 01:50:31;;;;;;;43.75;23.45;;;;;;;1.80;67.98;101755.47;3580129;40;20080;-64
2022/03/05 01:52:57;;;;;;;41.78;22.40;;;;;;;1.78;67.23;101756.41;3578288;40;20056;-63
2022/03/05 01:55:24;;;;;;;44.58;22.80;;;;;;;1.77;66.64;101754.63;3580033;40;20064;-64
2022/03/05 01:57:51;;;;;;;39.78;22.05;;;;;;;1.74;67.69;101747.59;3578668;40;20078;-63
2022/03/05 02:00:19;;;;;;;39.85;21.10;;;;;;;1.72;67.04;101756.47;3577617;40;20435;-63
2022/03/05 02:02:46;;;;;;;44.10;22.17;;;;;;;1.67;66.83;101753.84;3581486;40;20052;-63
2022/03/05 02:05:14;;;;;;;48.28;23.88;;;;;;;1.66;67.82;101751.25;3577015;40;20060;-63
2022/03/05 02:07:40;;;;;;;41.85;22.23;;;;;;;1.59;67.39;101746.00;3567486;40;20056;-63
2022/03/05 02:10:09;;;;;;;40.47;22.33;;;;;;;1.60;67.79;101758.34;3577988;40;20060;-63
2022/03/05 02:12:38;;;;;;;48.58;23.40;;;;;;;1.52;67.32;101752.25;3567881;40;20084;-63
2022/03/05 02:15:07;;;;;;;44.40;23.38;;;;;;;1.53;67.96;101756.66;3579436;40;20059;-63
2022/03/05 02:17:33;;;;;;;44.00;23.02;;;;;;;1.33;68.46;101729.47;3578353;40;20056;-63
2022/03/05 02:19:59;;;;;;;44.72;24.80;;;;;;;1.44;68.05;101751.44;3577535;40;20058;-63
2022/03/05 02:22:27;;;;;;;44.35;23.17;;;;;;;1.39;68.71;101748.81;3578906;40;20060;-63
2022/03/05 02:24:57;;;;;;;48.35;24.90;;;;;;;1.35;68.13;101756.81;3577425;40;20048;-63
2022/03/05 02:27:24;;;;;;;45.22;24.88;;;;;;;1.27;68.72;101743.66;3578645;40;20083;-62
2022/03/05 02:29:52;;;;;;;47.63;25.10;;;;;;;0.89;68.39;101672.50;3579349;40;20053;-63
2022/03/05 02:32:18;;;;;;;46.00;22.85;;;;;;;1.02;69.13;101695.31;3580685;40;20335;-63
2022/03/05 02:34:43;;;;;;;42.65;23.73;;;;;;;0.84;68.78;101674.28;3580061;40;20044;-63
2022/03/05 02:37:11;;;;;;;49.50;24.85;;;;;;;1.18;69.48;101737.56;3576491;40;20072;-63
2022/03/05 02:39:37;;;;;;;52.13;25.42;;;;;;;1.11;68.49;101727.03;3575701;40;20384;-63
2022/03/05 02:42:03;;;;;;;49.28;25.25;;;;;;;1.13;69.82;101729.63;3577036;40;20063;-63
2022/03/05 02:44:29;;;;;;;48.75;25.20;;;;;;;1.12;69.70;101728.75;3577538;40;20490;-63
2022/03/05 02:46:55;;;;;;;46.90;26.38;;;;;;;1.14;69.20;101731.38;3576446;40;20064;-63
2022/03/05 02:49:21;;;;;;;49.20;25.70;;;;;;;1.15;68.53;101739.34;3577071;40;20148;-62
2022/03/05 02:51:47;;;;;;;45.65;25.85;;;;;;;1.15;69.22;101747.28;3579335;40;20064;-63
2022/03/05 02:54:12;;;;;;;48.22;25.67;;;;;;;1.17;68.84;101741.94;3579124;40;20063;-62
2022/03/05 02:56:38;;;;;;;46.90;25.15;;;;;;;1.10;69.04;101727.88;3580476;40;20051;-63
2022/03/05 02:59:04;;;;;;;80.25;39.85;;;;;;;1.18;69.57;101743.72;3578636;40;20072;-63
2022/03/05 03:01:29;;;;;;;68.93;35.28;;;;;;;0.14;68.06;101570.78;3617984;22;20053;-63
2022/03/05 03:03:55;;;;;;;61.85;33.75;;;;;;;1.17;68.21;101744.59;3592585;40;20052;-63
2022/03/05 03:06:20;;;;;;;49.58;26.08;;;;;;;1.11;68.46;101734.97;3594586;40;20360;-63
2022/03/05 03:08:46;;;;;;;50.25;26.80;;;;;;;1.05;68.37;101727.06;3594504;40;20059;-63
2022/03/05 03:11:11;;;;;;;49.03;24.98;;;;;;;1.09;69.02;101739.38;3589009;40;20068;-63
2022/03/05 03:13:37;;;;;;;47.10;24.15;;;;;;;1.03;69.59;101738.56;3579458;40;20045;-63
2022/03/05 03:16:04;;;;;;;47.42;24.73;;;;;;;0.95;69.08;101720.06;3579416;40;20064;-63
2022/03/05 03:18:30;;;;;;;47.95;25.17;;;;;;;1.05;68.68;101736.78;3576665;40;20106;-63
2022/03/05 03:20:55;;;;;;;41.85;23.67;;;;;;;1.06;68.73;101734.13;3578033;40;20394;-63
2022/03/05 03:23:21;;;;;;;45.13;24.23;;;;;;;1.03;68.69;101739.44;3577137;40;20406;-63
2022/03/05 03:25:47;;;;;;;47.95;24.40;;;;;;;0.93;68.69;101724.50;3579674;40;20084;-63
2022/03/05 03:28:12;;;;;;;46.70;23.98;;;;;;;0.91;69.01;101724.50;3579187;40;20406;-64
2022/03/05 03:30:38;;;;;;;48.63;23.92;;;;;;;0.86;69.99;101720.16;3578802;40;20068;-63
2022/03/05 03:33:04;;;;;;;48.30;24.88;;;;;;;0.89;69.00;101726.31;3578303;40;20312;-63
2022/03/05 03:35:29;;;;;;;45.85;23.42;;;;;;;0.80;68.68;101721.09;3576168;40;20083;-63
2022/03/05 03:37:55;;;;;;;42.33;23.15;;;;;;;0.86;69.47;101730.75;3576998;40;20060;-63
2022/03/05 03:40:21;;;;;;;45.35;24.88;;;;;;;0.56;69.95;101687.72;3575845;40;20051;-63
2022/03/05 03:42:50;;;;;;;48.83;23.83;;;;;;;0.79;69.70;101731.66;3577578;40;20059;-63
2022/03/05 03:45:18;;;;;;;50.17;24.60;;;;;;;0.74;68.81;101720.25;3579829;40;20598;-63
2022/03/05 03:47:50;;;;;;;48.92;23.00;;;;;;;0.73;68.91;101729.06;3578763;40;20372;-63
2022/03/05 03:50:20;;;;;;;46.35;22.83;;;;;;;0.48;69.34;101689.56;3577898;40;20068;-63
2022/03/05 03:52:46;;;;;;;43.25;23.08;;;;;;;0.54;69.90;101718.63;3577756;40;20395;-63
2022/03/05 03:55:20;;;;;;;46.45;23.55;;;;;;;0.54;69.79;101723.00;3578277;40;20060;-63
2022/03/05 03:57:46;;;;;;;43.30;23.00;;;;;;;0.51;69.46;101725.66;3580131;40;20059;-63
2022/03/05 04:00:16;;;;;;;49.08;23.88;;;;;;;0.54;69.31;101737.13;3575468;40;20103;-64
2022/03/05 04:02:42;;;;;;;47.53;23.33;;;;;;;0.46;69.38;101725.69;3577055;40;20056;-63
2022/03/05 04:05:10;;;;;;;44.67;24.40;;;;;;;0.44;70.63;101724.81;3581342;40;20072;-63
2022/03/05 04:10:20;;;;;;;48.63;24.38;;;;;;;0.28;69.96;101720.50;3577657;40;20139;-63
2022/03/05 04:12:45;;;;;;;49.55;23.83;;;;;;;0.33;69.82;101729.31;3577717;40;20049;-63
2022/03/05 04:15:11;;;;;;;46.63;23.50;;;;;;;0.29;70.97;101727.56;3579161;40;20059;-63
2022/03/05 04:17:38;;;;;;;48.53;24.52;;;;;;;0.17;70.75;101721.44;3579150;40;20044;-63
2022/03/05 04:20:07;;;;;;;43.33;22.73;;;;;;;0.16;70.19;101722.34;3578422;40;20057;-63
2022/03/05 04:22:33;;;;;;;49.40;23.70;;;;;;;-0.09;71.02;101673.13;3576789;40;20053;-63
2022/03/05 04:24:59;;;;;;;47.08;22.85;;;;;;;0.18;70.13;101719.69;3571060;40;20047;-63
2022/03/05 04:27:25;;;;;;;54.03;24.83;;;;;;;0.20;70.11;101729.38;3575823;40;20061;-63
2022/03/05 04:29:50;;;;;;;45.70;22.55;;;;;;;0.26;69.98;101738.16;3579220;40;20299;-63
2022/03/05 04:32:16;;;;;;;48.22;23.08;;;;;;;0.11;71.03;101713.53;3581969;40;20056;-63
2022/03/05 04:34:42;;;;;;;48.53;23.65;;;;;;;0.12;70.13;101717.94;3582390;40;20049;-64
2022/03/05 04:37:07;;;;;;;49.33;24.23;;;;;;;0.17;70.44;101737.31;3580927;40;20076;-63
2022/03/05 04:39:33;;;;;;;49.47;23.73;;;;;;;0.05;70.41;101724.13;3574789;40;20064;-63
2022/03/05 04:41:59;;;;;;;47.92;23.27;;;;;;;0.13;71.19;101738.22;3577478;40;20048;-63
2022/03/05 04:44:24;;;;;;;50.40;23.23;;;;;;;0.09;70.97;101740.84;3576632;40;20295;-63
2022/03/05 04:46:50;;;;;;;49.47;23.52;;;;;;;0.07;70.77;101743.53;3577475;40;20064;-63
2022/03/05 04:49:16;;;;;;;50.35;23.73;;;;;;;0.15;71.18;101746.13;3578175;40;20083;-63
2022/03/05 04:51:42;;;;;;;46.20;23.90;;;;;;;0.09;70.72;101744.38;3579751;40;20307;-64
2022/03/05 04:54:07;;;;;;;47.00;23.88;;;;;;;0.08;71.21;101754.97;3577387;40;20095;-63
2022/03/05 04:56:33;;;;;;;45.92;24.88;;;;;;;0.02;71.13;101740.00;3578886;40;20481;-66
2022/03/05 04:58:59;;;;;;;44.50;22.92;;;;;;;0.01;71.18;101748.84;3576652;40;20080;-63
2022/03/05 05:01:24;;;;;;;43.90;22.63;;;;;;;0.00;71.46;101749.72;3575491;40;20372;-63
2022/03/05 05:03:50;;;;;;;50.03;24.58;;;;;;;-0.04;70.53;101746.19;3579432;40;20041;-63
2022/03/05 05:06:16;;;;;;;48.80;23.73;;;;;;;-0.03;71.05;101755.91;3579957;40;20067;-64
2022/03/05 05:08:41;;;;;;;47.40;22.85;;;;;;;-0.14;70.93;101738.31;3576227;40;20053;-65
2022/03/05 05:11:07;;;;;;;46.83;22.83;;;;;;;-0.05;71.73;101754.13;3577458;40;20429;-65
2022/03/05 05:13:33;;;;;;;50.58;24.02;;;;;;;-0.10;70.87;101746.19;3576761;40;20040;-65
2022/03/05 05:15:58;;;;;;;51.58;23.52;;;;;;;-0.10;71.25;101759.41;3576540;40;20055;-65
2022/03/05 05:18:24;;;;;;;56.22;25.05;;;;;;;-0.11;71.06;101751.50;3567025;40;20059;-65
2022/03/05 05:20:50;;;;;;;47.90;23.70;;;;;;;-0.18;71.09;101744.50;3576843;40;20041;-66
2022/03/05 05:23:15;;;;;;;49.75;24.63;;;;;;;-0.19;71.12;101750.63;3577944;40;20049;-65
2022/03/05 05:25:41;;;;;;;48.72;22.98;;;;;;;-0.37;71.13;101726.03;3581389;40;20054;-66
2022/03/05 05:28:07;;;;;;;48.38;23.30;;;;;;;-0.28;71.76;101741.88;3578275;40;20072;-65
2022/03/05 05:30:33;;;;;;;54.67;23.20;;;;;;;-0.19;72.18;101761.19;3578386;40;20041;-65
2022/03/05 05:32:59;;;;;;;52.75;24.40;;;;;;;-0.27;72.13;101753.31;3579972;40;20118;-66
2022/03/05 05:35:26;;;;;;;50.17;22.98;;;;;;;-0.50;72.31;101722.53;3579023;40;20130;-66
2022/03/05 05:37:51;;;;;;;50.20;22.88;;;;;;;-0.17;71.50;101775.31;3574548;40;20084;-67
2022/03/05 05:40:17;;;;;;;46.75;22.45;;;;;;;-0.24;71.20;101771.78;3577076;40;20092;-65
2022/03/05 05:42:43;;;;;;;48.95;23.17;;;;;;;-0.26;72.20;101777.06;3578315;40;20055;-66
2022/03/05 05:45:12;;;;;;;48.47;23.30;;;;;;;-0.31;71.76;101778.84;3578770;40;20783;-66
2022/03/05 05:47:37;;;;;;;48.58;22.20;;;;;;;-0.48;72.69;101738.38;3576509;40;20049;-66
2022/03/05 05:50:06;;;;;;;50.47;23.75;;;;;;;-0.28;71.97;101778.84;3575315;40;20057;-65
2022/03/05 05:52:33;;;;;;;49.05;23.90;;;;;;;-0.22;71.91;101779.69;3577064;40;20711;-65
2022/03/05 05:54:59;;;;;;;49.63;23.55;;;;;;;-0.20;72.35;101781.47;3578018;40;20056;-66
2022/03/05 05:57:25;;;;;;;47.42;23.05;;;;;;;-0.34;71.99;101760.38;3578852;40;20084;-66
2022/03/05 05:59:51;;;;;;;50.78;23.38;;;;;;;-0.29;71.94;101771.78;3576385;40;20053;-66
2022/03/05 06:02:16;;;;;;;56.60;24.92;;;;;;;-0.25;71.93;101772.69;3573985;40;20064;-66
2022/03/05 06:04:42;;;;;;;49.42;23.90;;;;;;;-0.29;72.37;101770.91;3581148;40;20052;-65
2022/03/05 06:07:08;;;;;;;52.13;23.52;;;;;;;-0.27;71.47;101769.16;3579278;40;20061;-66
2022/03/05 06:09:33;;;;;;;51.38;23.30;;;;;;;-0.19;71.58;101780.59;3576203;40;20063;-65
2022/03/05 06:11:59;;;;;;;47.67;24.15;;;;;;;-0.22;71.64;101779.69;3569222;40;20044;-65
2022/03/05 06:14:25;;;;;;;51.03;23.88;;;;;;;-0.17;72.49;101781.47;3577416;40;20049;-65
2022/03/05 06:16:50;;;;;;;49.83;23.55;;;;;;;-0.19;71.32;101777.06;3578721;40;20296;-65
2022/03/05 06:19:16;;;;;;;56.10;24.73;;;;;;;-0.17;71.88;101780.59;3576436;40;20109;-65
2022/03/05 06:21:42;;;;;;;47.13;24.02;;;;;;;-0.63;71.19;101696.19;3576360;40;20287;-66
2022/03/05 06:24:07;;;;;;;48.45;23.80;;;;;;;-0.14;71.08;101786.75;3577308;40;20096;-68
2022/03/05 06:26:35;;;;;;;52.90;24.90;;;;;;;-0.34;71.30;101752.44;3579379;40;20053;-63
2022/03/05 06:29:00;;;;;;;51.00;23.85;;;;;;;-0.17;71.71;101792.03;3580119;40;20045;-62
2022/03/05 06:31:26;;;;;;;53.50;24.95;;;;;;;-0.19;72.22;101795.56;3580434;40;20079;-62
2022/03/05 06:33:52;;;;;;;49.42;23.58;;;;;;;-0.20;72.49;101793.81;3581052;40;20048;-62
2022/03/05 06:36:17;;;;;;;56.20;24.42;;;;;;;-0.20;71.78;101791.16;3580861;40;20386;-62
2022/03/05 06:38:43;;;;;;;54.67;24.67;;;;;;;-0.26;71.87;101792.91;3579052;40;20052;-62
2022/03/05 06:41:08;;;;;;;48.58;23.45;;;;;;;-0.26;71.96;101792.03;3577042;40;20072;-62
2022/03/05 06:43:34;;;;;;;47.83;23.80;;;;;;;-0.18;72.02;101794.69;3577443;40;20060;-63
2022/03/05 06:45:59;;;;;;;52.42;24.13;;;;;;;-0.21;71.85;101798.22;3577776;40;20291;-62
2022/03/05 06:48:25;;;;;;;51.97;23.23;;;;;;;-0.20;71.99;101788.53;3579773;40;20048;-66
2022/03/05 06:50:51;;;;;;;52.25;24.80;;;;;;;-0.17;72.49;101772.66;3578950;40;20052;-62
2022/03/05 06:53:16;;;;;;;54.55;25.25;;;;;;;0.09;71.84;101805.19;3581294;40;20098;-62
2022/03/05 06:55:42;;;;;;;57.80;25.45;;;;;;;0.14;70.75;101779.63;3583085;40;20052;-63
2022/03/05 06:58:08;;;;;;;51.92;24.15;;;;;;;0.34;70.81;101781.31;3585137;40;20126;-63
2022/03/05 07:00:34;;;;;;;47.40;23.45;;;;;;;0.44;69.31;101780.38;3576638;40;20051;-62
2022/03/05 07:03:00;;;;;;;50.72;23.88;;;;;;;0.51;69.02;101778.56;3577776;40;20053;-62
2022/03/05 07:05:26;;;;;;;52.28;24.50;;;;;;;0.66;68.71;101797.88;3582707;40;20419;-63
2022/03/05 07:07:52;;;;;;;51.70;24.15;;;;;;;0.84;69.65;101809.28;3580955;40;20052;-63
2022/03/05 07:10:18;;;;;;;47.15;22.02;;;;;;;0.91;68.25;101803.03;3576915;40;20111;-64
2022/03/05 07:12:43;;;;;;;46.97;23.27;;;;;;;1.09;68.60;101812.66;3577631;40;20376;-63
2022/03/05 07:15:09;;;;;;;51.30;23.17;;;;;;;0.89;67.98;101767.78;3577845;40;20060;-63
2022/03/05 07:17:35;;;;;;;44.15;22.20;;;;;;;1.15;68.37;101802.00;3582225;40;20126;-63
2022/03/05 07:20:01;;;;;;;50.17;23.10;;;;;;;1.14;68.05;101798.50;3568269;40;20056;-62
2022/03/05 07:22:27;;;;;;;45.20;22.05;;;;;;;1.33;67.43;101816.88;3581073;40;20048;-64
2022/03/05 07:24:53;;;;;;;47.47;23.33;;;;;;;1.37;66.97;101819.50;3577840;40;20314;-62
2022/03/05 07:27:18;;;;;;;47.30;22.58;;;;;;;1.42;67.71;101815.91;3579048;40;20093;-62
2022/03/05 07:29:46;;;;;;;46.58;22.85;;;;;;;1.56;66.53;101820.22;3580601;40;20052;-63
2022/03/05 07:32:12;;;;;;;50.55;24.23;;;;;;;1.71;67.21;101819.19;3577886;40;20079;-62
2022/03/05 07:34:37;;;;;;;50.28;23.75;;;;;;;1.84;65.93;101814.69;3578071;40;20429;-63
2022/03/05 07:37:03;;;;;;;44.20;22.23;;;;;;;1.86;66.67;101797.84;3579530;40;20059;-62
2022/03/05 07:39:29;;;;;;;44.78;22.33;;;;;;;2.20;65.36;101820.47;3580062;40;20064;-62
2022/03/05 07:41:54;;;;;;;45.97;22.92;;;;;;;2.44;65.83;101812.25;3576723;40;20052;-62
2022/03/05 07:44:20;;;;;;;45.60;22.63;;;;;;;2.46;63.46;101778.56;3576747;40;20056;-62
2022/03/05 07:46:46;;;;;;;45.28;21.95;;;;;;;2.93;63.59;101816.88;3580456;40;20380;-63
2022/03/05 07:49:12;;;;;;;48.63;22.38;;;;;;;3.06;61.68;101800.78;3578815;40;20067;-64
2022/03/05 07:51:38;;;;;;;44.63;21.40;;;;;;;3.36;61.67;101816.25;3578279;40;20053;-62
2022/03/05 07:54:05;;;;;;;44.10;22.13;;;;;;;3.62;60.00;101817.59;3579154;40;20561;-63
2022/03/05 07:56:30;;;;;;;46.00;21.63;;;;;;;3.76;59.84;101810.22;3580221;40;20045;-63
2022/03/05 07:58:56;;;;;;;45.03;23.48;;;;;;;3.82;58.85;101793.28;3579616;40;20055;-61
2022/03/05 08:01:22;;;;;;;48.03;21.25;;;;;;;4.18;58.45;101818.31;3575236;40;20063;-62
2022/03/05 08:03:47;;;;;;;47.55;22.23;;;;;;;4.41;58.19;101826.75;3578400;40;20056;-62
2022/03/05 08:06:14;;;;;;;46.42;21.67;;;;;;;4.68;57.76;101834.19;3579877;40;20056;-61
2022/03/05 08:08:39;;;;;;;43.42;21.15;;;;;;;4.80;57.13;101826.81;3577821;40;20045;-61
2022/03/05 08:11:05;;;;;;;43.28;21.25;;;;;;;5.01;56.15;101843.22;3577566;40;20099;-61
2022/03/05 08:13:31;;;;;;;46.75;22.15;;;;;;;4.99;55.77;101803.28;3579861;40;20307;-61
2022/03/05 08:15:57;;;;;;;45.25;22.50;;;;;;;5.30;56.06;101843.44;3578800;40;20052;-61
2022/03/05 08:18:23;;;;;;;41.45;20.67;;;;;;;5.29;54.48;101817.66;3578776;40;20334;-61
2022/03/05 08:20:48;;;;;;;44.00;21.70;;;;;;;5.52;54.42;101853.59;3578492;40;20056;-62
2022/03/05 08:23:14;;;;;;;42.55;22.40;;;;;;;5.31;54.22;101805.19;3578379;40;20052;-62
2022/03/05 08:25:40;;;;;;;46.60;22.83;;;;;;;5.38;54.22;101800.59;3579779;40;20093;-62
2022/03/05 08:28:07;;;;;;;43.88;22.15;;;;;;;5.69;54.03;101853.16;3578051;40;20203;-62
2022/03/05 08:30:33;;;;;;;42.30;21.85;;;;;;;5.67;53.07;101833.66;3577169;40;20056;-61
2022/03/05 08:32:59;;;;;;;44.92;22.98;;;;;;;5.82;52.82;101849.25;3580703;40;20114;-62
2022/03/05 08:35:25;;;;;;;44.45;22.27;;;;;;;5.99;52.63;101846.19;3575016;40;20158;-62
2022/03/05 08:37:52;;;;;;;48.72;23.48;;;;;;;6.03;52.02;101830.06;3579325;40;20055;-61
2022/03/05 08:40:20;;;;;;;39.78;21.77;;;;;;;6.25;52.53;101830.34;3575588;40;20067;-63
2022/03/05 08:42:48;;;;;;;44.20;23.17;;;;;;;6.47;51.92;101833.31;3579587;40;20103;-62
2022/03/05 08:45:14;;;;;;;45.25;22.55;;;;;;;6.79;51.88;101849.28;3570356;40;20052;-62
2022/03/05 08:47:41;;;;;;;43.65;22.52;;;;;;;7.02;50.39;101852.16;3580044;40;20040;-62
2022/03/05 08:50:08;;;;;;;45.33;22.23;;;;;;;7.22;49.96;101844.38;3577818;40;20298;-62
2022/03/05 08:52:37;;;;;;;42.65;22.33;;;;;;;7.31;49.14;101843.22;3579031;40;20049;-62
2022/03/05 08:55:13;;;;;;;42.10;22.23;;;;;;;7.51;47.78;101850.59;3578778;40;20051;-63
2022/03/05 08:57:39;;;;;;;43.42;23.05;;;;;;;7.37;48.76;101836.81;3577621;40;20060;-62
2022/03/05 09:00:10;;;;;;;47.65;23.25;;;;;;;7.65;48.28;101848.34;3573464;40;22058;-63
2022/03/05 09:02:36;;;;;;;42.17;22.77;;;;;;;7.76;48.60;101852.47;3618755;22;20298;-65
2022/03/05 09:05:03;;;;;;;42.20;22.83;;;;;;;7.89;47.73;101845.75;3588103;40;20063;-65
2022/03/05 09:07:29;;;;;;;43.90;23.13;;;;;;;8.09;47.63;101858.50;3589826;40;20103;-64
2022/03/05 09:09:54;;;;;;;40.78;21.73;;;;;;;8.09;47.17;101863.84;3589247;40;20048;-64
2022/03/05 09:12:20;;;;;;;43.13;22.52;;;;;;;8.05;46.94;101824.69;3582521;40;20556;-64
2022/03/05 09:14:48;;;;;;;41.88;23.17;;;;;;;8.40;46.44;101847.56;3578324;40;20106;-64
2022/03/05 09:17:15;;;;;;;44.20;23.33;;;;;;;8.69;46.39;101842.94;3578064;40;20393;-64
2022/03/05 09:19:40;;;;;;;41.13;22.05;;;;;;;8.69;45.98;101832.22;3578689;40;20057;-64
2022/03/05 09:22:09;;;;;;;47.53;24.00;;;;;;;8.78;45.22;101843.44;3578620;40;20056;-64
2022/03/05 09:24:34;;;;;;;41.28;21.52;;;;;;;8.97;44.45;101829.34;3579964;40;20047;-64
2022/03/05 09:27:00;;;;;;;39.33;21.80;;;;;;;9.22;43.52;101835.47;3580594;40;20048;-63
2022/03/05 09:29:25;;;;;;;41.25;22.08;;;;;;;9.32;43.24;101827.94;3578618;40;20084;-63
2022/03/05 09:31:51;;;;;;;38.80;21.55;;;;;;;9.44;43.12;101838.19;3578530;40;20068;-64
2022/03/05 09:34:17;;;;;;;44.88;23.20;;;;;;;9.61;43.03;101832.13;3578972;40;20078;-64
2022/03/05 09:36:43;;;;;;;40.53;22.83;;;;;;;9.65;41.80;101824.81;3578142;40;20126;-64
2022/03/05 09:39:09;;;;;;;44.63;22.77;;;;;;;9.77;42.81;101840.41;3579512;40;20383;-64
2022/03/05 09:41:39;;;;;;;41.00;23.35;;;;;;;9.89;42.94;101829.13;3576257;40;20049;-64
2022/03/05 09:44:05;;;;;;;44.75;22.73;;;;;;;10.00;41.84;101831.38;3577158;40;20064;-63
2022/03/05 09:46:31;;;;;;;43.25;22.70;;;;;;;9.90;43.25;101804.03;3575940;40;20065;-64
2022/03/05 09:48:59;;;;;;;40.80;22.23;;;;;;;10.10;41.42;101837.22;3579573;40;20059;-64
2022/03/05 09:51:25;;;;;;;40.60;23.10;;;;;;;10.04;42.18;101838.34;3578187;40;20392;-63
2022/03/05 09:53:55;;;;;;;42.67;23.13;;;;;;;10.10;41.68;101837.22;3581157;40;20059;-63
2022/03/05 09:56:22;;;;;;;39.20;22.02;;;;;;;10.32;41.14;101837.19;3576343;40;20072;-64
2022/03/05 09:58:50;;;;;;;39.72;22.23;;;;;;;10.40;40.93;101829.63;3579033;40;20127;-63
2022/03/05 10:01:17;;;;;;;41.63;21.90;;;;;;;10.39;40.90;101835.94;3577577;40;20157;-64
2022/03/05 10:03:50;;;;;;;39.75;22.75;;;;;;;10.57;39.97;101836.94;3578589;40;20040;-64
2022/03/05 10:06:18;;;;;;;40.70;22.08;;;;;;;10.59;40.01;101840.41;3579157;40;20068;-64
2022/03/05 10:08:46;;;;;;;40.08;21.85;;;;;;;10.50;38.99;101779.00;3580177;40;20045;-64
2022/03/05 10:11:12;;;;;;;35.80;20.45;;;;;;;10.85;39.16;101826.66;3579220;40;20068;-63
2022/03/05 10:13:42;;;;;;;35.47;20.58;;;;;;;11.08;38.87;101839.00;3581713;40;20048;-63
2022/03/05 10:16:29;;;;;;;38.88;22.20;;;;;;;10.55;38.64;101733.97;3569104;40;20490;-63
2022/03/05 10:18:57;;;;;;;40.63;22.75;;;;;;;11.27;38.71;101833.63;3578722;40;20041;-64
2022/03/05 10:21:30;;;;;;;37.25;21.83;;;;;;;11.08;38.10;101787.03;3579278;40;20288;-64
2022/03/05 10:24:10;;;;;;;40.28;22.33;;;;;;;11.22;37.08;101805.19;3579438;40;20047;-63
2022/03/05 10:26:56;;;;;;;38.75;21.50;;;;;;;11.46;36.66;101832.72;3581689;40;20052;-64
2022/03/05 10:29:34;;;;;;;38.40;22.08;;;;;;;11.51;36.43;101834.25;3580015;40;20063;-64
2022/03/05 10:32:04;;;;;;;35.95;20.63;;;;;;;11.56;37.36;101834.00;3582397;40;20083;-64
2022/03/05 10:34:52;;;;;;;37.25;21.35;;;;;;;11.62;36.95;101837.25;3581285;40;20049;-63
2022/03/05 10:37:20;;;;;;;38.85;21.33;;;;;;;11.83;36.03;101840.69;3579302;40;20050;-64
2022/03/05 10:39:48;;;;;;;43.03;25.85;;;;;;;11.90;36.89;101824.25;3583013;40;20059;-64
2022/03/05 10:42:26;;;;;;;102.18;59.40;;;;;;;12.00;35.41;101837.16;3583290;40;20045;-63
2022/03/05 10:45:05;;;;;;;41.70;21.92;;;;;;;11.98;34.85;101825.59;3583058;40;20048;-64
2022/03/05 10:47:45;;;;;;;40.80;22.33;;;;;;;11.98;36.29;101832.81;3579293;40;20081;-63
2022/03/05 10:50:31;;;;;;;41.92;22.92;;;;;;;12.10;36.06;101823.22;3582428;40;20055;-64
2022/03/05 10:53:01;;;;;;;36.42;20.98;;;;;;;12.17;35.06;101803.94;3580447;40;20052;-64
2022/03/05 10:55:36;;;;;;;35.05;21.20;;;;;;;12.43;34.82;101829.53;3580829;40;20056;-64
2022/03/05 10:58:03;;;;;;;38.00;22.13;;;;;;;12.47;35.10;101836.50;3579217;40;20457;-64
2022/03/05 11:00:31;;;;;;;35.20;21.55;;;;;;;12.51;34.64;101829.97;3581213;40;20052;-64
2022/03/05 11:03:00;;;;;;;37.92;23.85;;;;;;;12.50;35.01;101838.16;3581693;40;20079;-63
2022/03/05 11:05:27;;;;;;;38.83;22.40;;;;;;;12.49;34.63;101818.38;3580006;40;20704;-64
2022/03/05 11:07:56;;;;;;;40.15;22.83;;;;;;;12.80;33.81;101835.59;3580968;40;20060;-64
2022/03/05 11:10:29;;;;;;;35.58;21.80;;;;;;;12.91;34.75;101832.34;3580043;40;20056;-64
2022/03/05 11:13:03;;;;;;;37.05;21.67;;;;;;;13.18;34.33;101836.16;3579060;40;20645;-64
2022/03/05 11:15:30;;;;;;;;;;;;;;;13.22;33.58;101836.84;3581571;40;20152;-64